CST,Max TemperatureF,Mean TemperatureF,Min TemperatureF,Max Dew PointF,MeanDew PointF,Min DewpointF,Max Humidity, Mean Humidity, Min Humidity, Max Sea Level PressureIn, Mean Sea Level PressureIn, Min Sea Level PressureIn, Max VisibilityMiles, Mean VisibilityMiles, Min VisibilityMiles, Max Wind SpeedMPH, Mean Wind SpeedMPH, Max Gust SpeedMPH,PrecipitationIn, CloudCover, Events, WindDirDegrees
2013-1-1,21,4,-13,20,4,-18,94,88,81,30.25,30.14,30.00,10,10,7,12,3,,0.00,6,Snow,202
2013-1-2,26,18,11,26,18,10,100,94,85,30.10,29.97,29.91,10,6,1,15,7,22,0.00,7,Snow,223
2013-1-3,15,10,5,14,8,1,93,87,81,30.27,30.18,30.06,10,10,7,17,12,23,0.00,3,Snow,261
2013-1-4,25,15,5,19,14,3,100,86,77,30.10,30.06,29.99,10,10,7,13,7,,0.00,0,,249
2013-1-5,20,10,1,16,9,-1,95,90,80,30.05,29.95,29.84,10,10,7,16,4,,0.00,0,,268
2013-1-6,20,14,9,18,12,5,100,93,83,30.21,30.12,29.90,10,9,2,14,8,21,0.00,3,Snow,233
2013-1-7,34,28,21,28,24,19,92,85,75,29.96,29.90,29.85,10,10,10,17,10,23,0.00,1,,218
2013-1-8,31,20,10,30,22,9,100,93,87,29.96,29.84,29.70,10,10,7,16,5,22,0.00,2,,161
2013-1-9,34,28,21,32,25,19,94,84,75,30.33,30.17,29.91,10,10,10,26,14,32,0.00,0,,235
2013-1-10,37,33,29,34,30,26,100,87,70,30.23,30.02,29.68,10,8,1,17,9,21,0.12,3,Rain,145
2013-1-11,36,34,30,37,35,30,100,100,100,29.68,29.47,29.35,10,2,0,14,8,17,0.01,8,Fog,155
2013-1-12,28,16,2,28,8,-2,100,84,77,30.06,29.83,29.39,10,8,2,18,3,24,0.00,4,Snow,282
2013-1-13,6,3,0,3,0,-4,88,82,78,30.22,30.11,30.03,10,10,7,13,9,,0.00,2,,287
2013-1-14,9,4,0,7,2,-3,92,86,78,30.38,30.30,30.22,10,10,10,12,6,,0.00,1,,235
2013-1-15,29,16,2,23,12,1,93,83,69,30.23,30.08,29.80,10,10,10,13,5,17,0.00,0,,194
2013-1-16,35,20,5,36,21,0,100,86,69,30.22,29.87,29.64,10,9,1,18,13,26,0.00,5,Rain-Snow,279
2013-1-17,19,10,0,14,5,-5,88,77,64,30.38,30.33,30.23,10,10,10,10,7,,0.00,4,,259
2013-1-18,37,28,19,32,26,15,96,88,79,30.21,29.86,29.72,10,10,5,13,8,,0.00,3,,201
2013-1-19,38,20,1,33,18,-4,100,84,67,30.25,29.89,29.67,10,10,10,37,11,48,0.00,3,,280
2013-1-20,9,3,-3,5,-3,-10,85,77,72,30.39,30.31,30.26,10,10,2,21,12,24,0.00,3,Snow,290
2013-1-21,-3,-6,-10,-9,-13,-17,84,74,65,30.33,30.29,30.26,10,10,7,20,12,24,0.00,0,,282
2013-1-22,8,-2,-13,3,-9,-18,84,76,71,30.36,30.29,30.19,10,10,10,8,4,,0.00,3,,251
2013-1-23,14,5,-4,9,0,-13,92,77,61,30.58,30.28,30.12,10,9,0,28,7,37,0.00,2,Snow,311
2013-1-24,15,5,-5,7,-5,-14,73,67,62,30.62,30.43,30.09,10,10,10,16,9,24,0.00,4,,115
2013-1-25,20,10,0,16,5,-4,87,76,67,30.28,30.09,29.94,10,10,5,30,13,38,0.00,3,Snow,272
2013-1-26,24,10,-3,16,6,-6,87,77,64,30.30,30.19,30.04,10,10,10,16,6,17,0.00,2,,119
2013-1-27,34,28,21,34,27,15,100,89,73,30.04,29.88,29.77,10,7,1,16,8,17,0.04,6,Rain-Snow,117
2013-1-28,34,32,31,34,34,32,100,100,100,29.86,29.79,29.62,2,1,0,15,3,17,0.09,8,Fog,126
2013-1-29,34,30,26,34,31,24,100,95,86,29.76,29.64,29.52,10,7,2,22,9,29,0.01,7,Rain,323
2013-1-30,26,16,6,24,12,1,90,84,79,29.77,29.71,29.69,10,10,4,26,18,32,0.00,8,Snow,312
2013-1-31,6,-2,-9,1,-7,-15,85,78,71,30.26,30.03,29.78,10,9,3,24,17,31,0.00,4,Snow,290